Hialeah, FL (33010)

9:26 PM EDT on March 24, 2017 (GMT -0400)
Miami Springs | | Change Station

Elev 26 ft 25.83 °N, 80.29 °W | Updated 53 seconds ago

Mostly Cloudy
Mostly Cloudy
72.6 °F
Feels Like 75 °F
N
0.2
Wind Variable Wind from South

Today
High -- | Low -- °F
--% Chance of Precip.
Yesterday
High -- | Low -- °F
Precip. -- in
Pressure 30.21 in
Visibility 10.0 miles
Clouds Scattered Clouds 3000 ft
Mostly Cloudy 4000 ft
Mostly Cloudy 7000 ft
Heat Index 75 °F
Dew Point 62 °F
Humidity 70%
Rainfall 0.97 in
Snow Depth Not available.
7:20 AM 7:34 PM
Waning Crescent, 11% visible
METAR KMIA 250053Z 07012KT 10SM SCT030 BKN040 BKN070 23/17 A3021 RMK AO2 RAB06E24 SLP229 P0000 T02280167 $
Pressure 30.21 in
Visibility 10.0 miles
Clouds Scattered Clouds 3000 ft
Mostly Cloudy 4000 ft
Mostly Cloudy 7000 ft
Heat Index 75 °F
Dew Point 62 °F
Humidity 70%
Rainfall 0.97 in
Snow Depth Not available.
7:20 AM 7:34 PM
Waning Crescent, 11% visible
METAR KMIA 250053Z 07012KT 10SM SCT030 BKN040 BKN070 23/17 A3021 RMK AO2 RAB06E24 SLP229 P0000 T02280167 $

Get Severe Weather Alerts

Thanks for signing up!

Be on the lookout for a verification email in your inbox.

You'll start receiving the daily forecast at 8 AM.

×

10-Day Weather Forecast

Almanac

Astronomy

Mar. 24, 2017 Rise Set
Actual Time
Civil Twilight
Nautical Twilight
Astronomical Twilight
Moon
Length of Visible Light
Length of Day
Tomorrow will be .
, % of the Moon is Illuminated

Today's Extremes

State Highs State Lows

Community

WunderPhotos

Upload Photos

1,962,540 photos uploaded!

WunderBlog® & News

Nearby

Air Quality

  Air Quality AQ Index Pollutant
Not available.

Snow Depth

Station Depth Elevation

Earthquake Activity

City Distance Mag. Time & Date
Minimum magnitude displayed is 2.5.

Earthquake Activity

City Distance Mag. Time & Date
Minimum magnitude displayed is 2.5.

Coastal Water Temperatures

Place Temperature

Stations

Nearby Weather Stations

Station Location Temp. Windchill Dew Point Humidity Wind Precip. Elev Updated Type
                   

Watches & Warnings

There are currently no watches in effect.